LFQQ/LIL METAR and TAF weather

Enter ICAO airport designator
Station Type Date Time Source
LFQQ METAR 2021/04/13 06:30 UTC NOAA

LFQQ 130630Z AUTO 23003KT 6000 NSC 00/M01 Q1033 NOSIG


Station Type Date Time Source
LFQQ Decoded METAR 2021/04/13 06:30 UTC NOAA

Lille, France (LFQQ) 50-34N 003-06E 52M
Apr 13, 2021 - 02:30 AM EDT / 2021.04.13 0630 UTC
Wind: from the SW (230 degrees) at 3 MPH (3 KT):0
Visibility: 3 mile(s):0
Temperature: 32 F (0 C)
Dew Point: 30 F (-1 C)
Relative Humidity: 92%
Pressure (altimeter): 30.50 in. Hg (1033 hPa)
ob: LFQQ 130630Z AUTO 23003KT 6000 NSC 00/M01 Q1033 NOSIG
cycle: 6

Station Type Date Time Source
LFQQ TAF 2021/04/13 06:21 UTC NOAA

TAF LFQQ 130500Z 1306/1412 VRB02KT CAVOK
BECMG 1410/1412 06012KT

Example: see airport list